createdAt,value
2018-01-11T00:01:26.146Z,8.90
2018-01-11T00:03:53.035Z,8.80
2018-01-11T00:06:20.695Z,8.80
2018-01-11T00:08:47.554Z,8.80
2018-01-11T00:11:14.472Z,8.80
2018-01-11T00:13:41.334Z,8.70
2018-01-11T00:16:08.268Z,8.70
2018-01-11T00:18:35.179Z,8.80
2018-01-11T00:21:02.113Z,8.70
2018-01-11T00:23:28.980Z,8.70
2018-01-11T00:25:55.845Z,8.60
2018-01-11T00:28:22.789Z,8.60
2018-01-11T00:30:49.687Z,8.50
2018-01-11T00:33:16.958Z,8.40
2018-01-11T00:35:43.962Z,8.30
2018-01-11T00:38:10.898Z,8.30
2018-01-11T00:40:37.874Z,8.30
2018-01-11T00:43:04.750Z,8.30
2018-01-11T00:45:31.683Z,8.30
2018-01-11T00:47:58.531Z,8.30
2018-01-11T00:50:25.482Z,8.30
2018-01-11T00:52:52.399Z,8.40
2018-01-11T00:55:19.335Z,8.50
2018-01-11T00:57:46.203Z,8.40
2018-01-11T01:00:13.129Z,8.30
2018-01-11T01:02:39.975Z,8.40
2018-01-11T01:05:06.936Z,8.10
2018-01-11T01:07:33.851Z,8.30
2018-01-11T01:10:00.772Z,8.30
2018-01-11T01:12:27.703Z,8.30
2018-01-11T01:14:54.635Z,8.20
2018-01-11T01:17:21.619Z,8.30
2018-01-11T01:19:49.211Z,8.30
2018-01-11T01:22:16.066Z,8.30
2018-01-11T01:24:43.024Z,8.40
2018-01-11T01:27:09.888Z,8.30
2018-01-11T01:29:36.755Z,8.40
2018-01-11T01:32:03.674Z,8.50
2018-01-11T01:34:30.607Z,8.50
2018-01-11T01:36:57.455Z,8.50
2018-01-11T01:39:24.380Z,8.60
2018-01-11T01:41:51.244Z,8.60
2018-01-11T01:44:18.169Z,8.60
2018-01-11T01:46:45.064Z,8.60
2018-01-11T01:49:12.024Z,8.20
2018-01-11T01:51:39.626Z,7.70
2018-01-11T01:54:06.560Z,7.70
2018-01-11T01:56:33.468Z,7.60
2018-01-11T01:59:00.343Z,7.50
2018-01-11T02:01:27.284Z,7.60
2018-01-11T02:03:54.217Z,7.60
2018-01-11T02:06:21.135Z,7.70
2018-01-11T02:08:47.989Z,7.70
2018-01-11T02:11:14.931Z,7.80
2018-01-11T02:13:41.806Z,7.80
2018-01-11T02:16:09.568Z,7.30
2018-01-11T02:18:37.287Z,7.60
2018-01-11T02:21:04.218Z,7.50
2018-01-11T02:23:31.135Z,7.40
2018-01-11T02:25:58.012Z,7.70
2018-01-11T02:28:24.929Z,7.80
2018-01-11T02:30:51.782Z,8.00
2018-01-11T02:33:18.717Z,8.00
2018-01-11T02:35:45.648Z,8.10
2018-01-11T02:38:12.499Z,8.30
2018-01-11T02:40:39.331Z,8.30
2018-01-11T02:43:06.246Z,8.40
2018-01-11T02:45:33.115Z,8.00
2018-01-11T02:48:00.037Z,8.00
2018-01-11T02:50:26.907Z,8.20
2018-01-11T02:52:53.989Z,8.10
2018-01-11T02:55:20.853Z,7.90
2018-01-11T02:57:48.559Z,7.90
2018-01-11T03:00:15.561Z,8.10
2018-01-11T03:02:42.534Z,8.30
2018-01-11T03:05:09.395Z,8.30
2018-01-11T03:07:36.303Z,8.40
2018-01-11T03:10:03.214Z,8.40
2018-01-11T03:12:30.135Z,8.50
2018-01-11T03:14:56.999Z,8.60
2018-01-11T03:17:23.915Z,8.60
2018-01-11T03:19:50.830Z,8.50
2018-01-11T03:22:17.764Z,8.00
2018-01-11T03:24:44.626Z,8.00
2018-01-11T03:27:11.469Z,8.10
2018-01-11T03:29:38.873Z,8.20
2018-01-11T03:32:06.531Z,8.40
2018-01-11T03:34:34.205Z,8.50
2018-01-11T03:37:01.807Z,8.50
2018-01-11T03:39:28.731Z,8.50
2018-01-11T03:41:55.578Z,8.50
2018-01-11T03:44:22.505Z,8.60
2018-01-11T03:46:49.374Z,8.50
2018-01-11T03:49:16.225Z,8.50
2018-01-11T03:51:43.160Z,8.50
2018-01-11T03:54:10.076Z,8.60
2018-01-11T03:56:37.661Z,8.60
2018-01-11T03:59:04.635Z,8.60
2018-01-11T04:01:31.488Z,8.50
2018-01-11T04:03:58.352Z,8.40
2018-01-11T04:06:25.332Z,8.20
2018-01-11T04:08:52.178Z,8.40
2018-01-11T04:11:19.136Z,8.40
2018-01-11T04:13:45.983Z,8.50
2018-01-11T04:16:12.839Z,8.50
2018-01-11T04:18:39.807Z,8.60
2018-01-11T04:21:06.686Z,8.60
2018-01-11T04:23:34.374Z,8.50
2018-01-11T04:26:01.235Z,8.50
2018-01-11T04:28:28.087Z,8.00
2018-01-11T04:30:55.012Z,7.80
2018-01-11T04:33:21.924Z,8.00
2018-01-11T04:35:48.859Z,8.10
2018-01-11T04:38:15.706Z,8.30
2018-01-11T04:40:42.660Z,8.30
2018-01-11T04:43:09.511Z,8.20
2018-01-11T04:45:37.175Z,8.40
2018-01-11T04:48:04.768Z,8.50
2018-01-11T04:50:31.635Z,8.50
2018-01-11T04:52:58.579Z,8.50
2018-01-11T04:55:25.425Z,8.70
2018-01-11T04:57:52.362Z,8.60
2018-01-11T05:00:19.350Z,8.60
2018-01-11T05:02:46.283Z,8.40
2018-01-11T05:05:13.135Z,8.30
2018-01-11T05:07:40.067Z,8.20
2018-01-11T05:10:06.934Z,8.40
2018-01-11T05:12:33.793Z,8.50
2018-01-11T05:15:01.464Z,8.20
2018-01-11T05:17:28.330Z,8.20
2018-01-11T05:19:55.184Z,8.00
2018-01-11T05:22:22.103Z,8.00
2018-01-11T05:24:48.958Z,7.80
2018-01-11T05:27:30.919Z,7.60
2018-01-11T05:29:59.445Z,7.40
2018-01-11T05:32:26.379Z,7.40
2018-01-11T05:34:53.296Z,7.60
2018-01-11T05:37:20.138Z,7.50
2018-01-11T05:39:47.071Z,7.40
2018-01-11T05:42:13.949Z,7.60
2018-01-11T05:44:41.696Z,8.00
2018-01-11T05:47:08.574Z,8.00
2018-01-11T05:49:35.444Z,8.20
2018-01-11T05:52:02.366Z,8.30
2018-01-11T05:54:29.232Z,8.40
2018-01-11T05:56:56.151Z,8.40
2018-01-11T05:59:23.002Z,8.50
2018-01-11T06:01:50.003Z,8.50
2018-01-11T06:04:16.851Z,8.50
2018-01-11T06:06:43.711Z,8.60
2018-01-11T06:09:10.624Z,8.60
2018-01-11T06:11:37.484Z,8.60
2018-01-11T06:14:04.357Z,8.70
2018-01-11T06:16:32.559Z,8.60
2018-01-11T06:18:59.553Z,8.60
2018-01-11T06:21:26.437Z,8.60
2018-01-11T06:23:53.335Z,8.40
2018-01-11T06:26:20.262Z,8.30
2018-01-11T06:28:47.119Z,8.20
2018-01-11T06:31:14.039Z,7.90
2018-01-11T06:33:40.890Z,7.90
2018-01-11T06:36:07.824Z,7.60
2018-01-11T06:38:34.692Z,7.30
2018-01-11T06:41:01.543Z,7.20
2018-01-11T06:43:28.479Z,7.10
2018-01-11T06:45:55.403Z,6.90
2018-01-11T06:48:22.330Z,6.90
2018-01-11T06:50:49.197Z,6.80
2018-01-11T06:53:16.138Z,6.70
2018-01-11T06:55:42.994Z,6.90
2018-01-11T06:58:09.846Z,6.90
2018-01-11T07:00:36.777Z,6.80
2018-01-11T07:03:03.748Z,6.60
2018-01-11T07:05:30.666Z,6.60
2018-01-11T07:07:57.599Z,6.40
2018-01-11T07:10:24.516Z,6.50
2018-01-11T07:12:52.229Z,6.30
2018-01-11T07:15:19.080Z,6.30
2018-01-11T07:17:45.935Z,6.20
2018-01-11T07:20:12.854Z,6.00
2018-01-11T07:22:39.728Z,6.10
2018-01-11T07:25:07.206Z,6.20
2018-01-11T07:27:34.751Z,6.30
2018-01-11T07:30:08.333Z,6.40
2018-01-11T07:32:43.954Z,6.60
2018-01-11T07:35:10.890Z,6.80
2018-01-11T07:37:43.832Z,6.80
2018-01-11T07:40:10.773Z,6.80
2018-01-11T07:42:37.613Z,6.30
2018-01-11T07:45:04.554Z,6.20
2018-01-11T07:47:31.429Z,6.30
2018-01-11T07:49:58.376Z,6.30
2018-01-11T07:52:25.428Z,6.30
2018-01-11T07:54:52.347Z,6.50
2018-01-11T07:57:19.278Z,6.30
2018-01-11T07:59:46.111Z,6.30
2018-01-11T08:02:13.029Z,6.70
2018-01-11T08:04:39.884Z,6.70
2018-01-11T08:07:12.655Z,7.00
2018-01-11T08:09:39.499Z,7.20
2018-01-11T08:12:06.342Z,7.30
2018-01-11T08:14:33.232Z,7.40
2018-01-11T08:17:02.415Z,7.10
2018-01-11T08:19:32.046Z,6.90
2018-01-11T08:21:58.995Z,6.70
2018-01-11T08:24:25.912Z,7.10
2018-01-11T08:26:52.991Z,7.20
2018-01-11T08:29:19.895Z,7.20
2018-01-11T08:31:47.225Z,7.20
2018-01-11T08:34:14.099Z,6.80
2018-01-11T08:36:41.016Z,6.80
2018-01-11T08:39:08.680Z,7.00
2018-01-11T08:41:35.579Z,7.00
2018-01-11T08:44:02.431Z,7.20
2018-01-11T08:46:29.371Z,7.30
2018-01-11T08:49:00.341Z,7.20
2018-01-11T08:51:29.859Z,6.80
2018-01-11T08:53:58.409Z,6.80
2018-01-11T08:56:28.281Z,6.80
2018-01-11T08:58:55.711Z,7.00
2018-01-11T09:01:22.564Z,6.80
2018-01-11T09:03:50.563Z,7.00
2018-01-11T09:06:17.470Z,7.00
2018-01-11T09:08:44.491Z,6.90
2018-01-11T09:11:11.395Z,7.10
2018-01-11T09:13:38.623Z,7.10
2018-01-11T09:16:05.992Z,6.90
2018-01-11T09:18:33.945Z,6.90
2018-01-11T09:21:01.913Z,6.90
2018-01-11T09:23:30.763Z,7.00
2018-01-11T09:25:57.666Z,6.80
2018-01-11T09:28:27.512Z,6.70
2018-01-11T09:30:59.570Z,6.70
2018-01-11T09:33:29.189Z,6.70
2018-01-11T09:36:00.157Z,6.70
2018-01-11T09:38:26.992Z,6.60
2018-01-11T09:40:57.658Z,6.70
2018-01-11T09:43:26.019Z,6.70
2018-01-11T09:45:53.562Z,6.50
2018-01-11T09:48:25.808Z,6.40
2018-01-11T09:50:52.842Z,6.50
2018-01-11T09:53:24.087Z,6.00
2018-01-11T09:55:57.894Z,6.20
2018-01-11T09:58:27.579Z,6.10
2018-01-11T10:00:56.200Z,6.30
2018-01-11T10:03:23.120Z,6.30
2018-01-11T10:05:50.771Z,6.50
2018-01-11T10:08:18.991Z,6.70
2018-01-11T10:10:45.914Z,7.10
2018-01-11T10:13:14.587Z,7.30
2018-01-11T10:15:41.509Z,7.20
2018-01-11T10:18:08.946Z,6.70
2018-01-11T10:20:35.795Z,6.80
2018-01-11T10:23:03.712Z,6.90
2018-01-11T10:25:30.553Z,7.30
2018-01-11T10:27:59.000Z,7.60
2018-01-11T10:30:27.223Z,7.90
2018-01-11T10:32:54.212Z,7.90
2018-01-11T10:35:21.123Z,8.00
2018-01-11T10:37:47.947Z,8.10
2018-01-11T10:40:14.851Z,8.40
2018-01-11T10:42:41.747Z,8.50
2018-01-11T10:45:10.541Z,8.10
2018-01-11T10:47:38.134Z,8.30
2018-01-11T10:50:05.060Z,8.30
2018-01-11T10:52:31.956Z,8.50
2018-01-11T10:54:59.634Z,7.80
2018-01-11T10:57:27.836Z,7.80
2018-01-11T10:59:54.740Z,7.90
2018-01-11T11:02:27.445Z,7.70
2018-01-11T11:04:54.340Z,7.70
2018-01-11T11:07:24.626Z,8.20
2018-01-11T11:09:51.552Z,8.60
2018-01-11T11:12:18.499Z,8.60
2018-01-11T11:14:45.345Z,8.30
2018-01-11T11:17:17.573Z,8.10
2018-01-11T11:19:46.992Z,8.00
2018-01-11T11:22:13.902Z,8.00
2018-01-11T11:24:41.867Z,8.00
2018-01-11T11:27:10.196Z,8.50
2018-01-11T11:29:40.123Z,8.80
2018-01-11T11:32:08.228Z,8.80
2018-01-11T11:34:36.147Z,8.60
2018-01-11T11:37:03.072Z,8.90
2018-01-11T11:39:33.109Z,9.30
2018-01-11T11:42:00.444Z,9.00
2018-01-11T11:44:28.565Z,9.40
2018-01-11T11:46:55.634Z,9.40
2018-01-11T11:49:26.797Z,9.20
2018-01-11T11:52:03.400Z,9.40
2018-01-11T11:54:40.376Z,9.10
2018-01-11T11:57:07.323Z,8.80
2018-01-11T11:59:34.162Z,9.30
2018-01-11T12:02:01.011Z,9.20
2018-01-11T12:04:28.020Z,9.20
2018-01-11T12:06:54.869Z,9.50
2018-01-11T12:09:21.826Z,9.60
2018-01-11T12:11:55.202Z,9.80
2018-01-11T12:14:30.220Z,9.60
2018-01-11T12:16:57.236Z,9.80
2018-01-11T12:19:31.347Z,9.80
2018-01-11T12:22:05.023Z,10.00
2018-01-11T12:24:43.692Z,10.30
2018-01-11T12:27:20.453Z,10.50
2018-01-11T12:29:56.975Z,10.60
2018-01-11T12:32:35.776Z,10.40
2018-01-11T12:35:15.344Z,10.70
2018-01-11T12:37:53.185Z,10.70
2018-01-11T12:40:29.267Z,10.70
2018-01-11T12:43:06.271Z,10.70
2018-01-11T12:45:44.093Z,10.30
2018-01-11T12:48:20.944Z,9.60
2018-01-11T12:51:00.982Z,9.70
2018-01-11T12:53:39.213Z,9.80
2018-01-11T12:56:16.291Z,10.00
2018-01-11T12:58:45.697Z,10.10
2018-01-11T13:01:13.410Z,10.00
2018-01-11T13:03:41.053Z,10.10
2018-01-11T13:06:10.235Z,10.20
2018-01-11T13:08:44.116Z,9.80
2018-01-11T13:11:12.611Z,10.00
2018-01-11T13:13:43.313Z,10.00
2018-01-11T13:16:14.496Z,10.30
2018-01-11T13:18:44.648Z,10.30
2018-01-11T13:21:15.016Z,10.50
2018-01-11T13:23:44.921Z,10.50
2018-01-11T13:26:15.207Z,10.40
2018-01-11T13:28:45.813Z,10.40
2018-01-11T13:31:16.009Z,10.40
2018-01-11T13:33:46.470Z,10.00
2018-01-11T13:36:16.772Z,9.90
2018-01-11T13:38:47.274Z,10.00
2018-01-11T13:41:15.083Z,10.30
2018-01-11T13:43:42.007Z,10.30
2018-01-11T13:46:08.868Z,10.20
2018-01-11T13:48:35.737Z,10.30
2018-01-11T13:51:02.643Z,10.30
2018-01-11T13:53:29.499Z,10.40
2018-01-11T13:55:56.410Z,10.40
2018-01-11T13:58:23.391Z,10.50
2018-01-11T14:00:50.256Z,10.60
2018-01-11T14:03:17.936Z,10.70
2018-01-11T14:05:45.528Z,10.80
2018-01-11T14:08:12.379Z,10.80
2018-01-11T14:10:39.295Z,10.70
2018-01-11T14:13:06.136Z,10.70
2018-01-11T14:15:33.048Z,10.80
2018-01-11T14:17:59.962Z,10.50
2018-01-11T14:20:26.827Z,10.40
2018-01-11T14:22:53.667Z,10.30
2018-01-11T14:25:20.579Z,10.50
2018-01-11T14:27:47.448Z,10.40
2018-01-11T14:30:14.372Z,10.20
2018-01-11T14:32:41.257Z,9.90
2018-01-11T14:35:08.207Z,9.90
2018-01-11T14:37:35.069Z,10.00
2018-01-11T14:40:02.747Z,10.10
2018-01-11T14:42:29.663Z,10.10
2018-01-11T14:44:56.528Z,10.00
2018-01-11T14:47:23.453Z,10.10
2018-01-11T14:49:50.440Z,9.50
2018-01-11T14:52:17.432Z,9.40
2018-01-11T14:54:44.350Z,9.50
2018-01-11T14:57:11.213Z,9.70
2018-01-11T14:59:38.202Z,9.70
2018-01-11T15:02:05.069Z,9.90
2018-01-11T15:04:32.083Z,9.90
2018-01-11T15:06:58.955Z,9.90
2018-01-11T15:09:25.870Z,9.90
2018-01-11T15:12:09.747Z,9.90
2018-01-11T15:14:48.482Z,9.70
2018-01-11T15:17:25.299Z,9.50
2018-01-11T15:19:53.195Z,9.40
2018-01-11T15:22:20.211Z,9.30
2018-01-11T15:24:57.112Z,9.30
2018-01-11T15:27:36.318Z,9.30
2018-01-11T15:30:12.991Z,9.40
2018-01-11T15:32:49.343Z,9.10
2018-01-11T15:35:27.089Z,9.00
2018-01-11T15:37:56.677Z,9.10
2018-01-11T15:40:25.284Z,9.10
2018-01-11T15:42:53.962Z,9.00
2018-01-11T15:45:20.827Z,9.00
2018-01-11T15:47:50.859Z,8.70
2018-01-11T15:50:19.665Z,8.70
2018-01-11T15:52:48.200Z,8.70
2018-01-11T15:55:24.385Z,8.80
2018-01-11T15:57:58.880Z,8.80
2018-01-11T16:00:26.476Z,8.80
2018-01-11T16:02:53.979Z,8.80
2018-01-11T16:05:21.536Z,9.00
2018-01-11T16:07:48.650Z,8.90
2018-01-11T16:10:16.032Z,9.00
2018-01-11T16:12:42.892Z,9.00
2018-01-11T16:15:09.936Z,8.90
2018-01-11T16:17:37.839Z,8.80
2018-01-11T16:20:05.032Z,8.70
2018-01-11T16:22:31.974Z,8.80
2018-01-11T16:24:58.908Z,8.80
2018-01-11T16:27:25.835Z,8.60
2018-01-11T16:29:54.516Z,8.60
2018-01-11T16:32:21.484Z,8.60
2018-01-11T16:34:51.481Z,8.50
2018-01-11T16:37:19.206Z,8.50
2018-01-11T16:39:49.769Z,8.30
2018-01-11T16:42:23.996Z,8.30
2018-01-11T16:44:52.944Z,8.00
2018-01-11T16:47:22.080Z,8.20
2018-01-11T16:49:49.798Z,8.20
2018-01-11T16:52:16.823Z,8.30
2018-01-11T16:54:43.757Z,8.20
2018-01-11T16:57:11.625Z,8.40
2018-01-11T16:59:44.220Z,8.50
2018-01-11T17:02:14.276Z,8.50
2018-01-11T17:07:29.633Z,8.50
2018-01-11T17:10:10.020Z,8.50
2018-01-11T17:12:42.994Z,8.60
2018-01-11T17:15:14.478Z,8.60
2018-01-11T17:17:43.157Z,8.60
2018-01-11T17:20:10.369Z,8.50
2018-01-11T17:22:44.493Z,8.60
2018-01-11T17:25:14.455Z,8.60
2018-01-11T17:27:46.566Z,8.50
2018-01-11T17:30:22.417Z,8.40
2018-01-11T17:32:56.555Z,8.50
2018-01-11T17:35:33.409Z,8.30
2018-01-11T17:38:11.060Z,8.20
2018-01-11T17:40:47.434Z,8.20
2018-01-11T17:43:25.362Z,8.30
2018-01-11T17:45:54.456Z,8.30
2018-01-11T17:48:24.125Z,8.30
2018-01-11T17:50:52.369Z,8.40
2018-01-11T17:53:21.030Z,8.50
2018-01-11T17:55:49.324Z,8.40
2018-01-11T17:58:19.282Z,8.40
2018-01-11T18:00:46.373Z,8.40
2018-01-11T18:03:13.318Z,8.40
2018-01-11T18:05:40.370Z,8.50
2018-01-11T18:08:07.245Z,8.60
2018-01-11T18:10:34.176Z,8.50
2018-01-11T18:13:01.043Z,8.50
2018-01-11T18:15:28.052Z,8.60
2018-01-11T18:17:54.915Z,8.50
2018-01-11T18:20:21.856Z,8.50
2018-01-11T18:22:48.752Z,8.40
2018-01-11T18:25:15.627Z,8.50
2018-01-11T18:27:42.607Z,8.50
2018-01-11T18:30:10.224Z,8.50
2018-01-11T18:32:37.163Z,8.50
2018-01-11T18:35:04.100Z,8.60
2018-01-11T18:37:30.963Z,8.60
2018-01-11T18:39:57.896Z,8.70
2018-01-11T18:42:24.824Z,8.70
2018-01-11T18:44:51.769Z,8.80
2018-01-11T18:47:18.679Z,8.70
2018-01-11T18:49:46.297Z,8.70
2018-01-11T18:52:13.334Z,8.70
2018-01-11T18:54:41.007Z,8.50
2018-01-11T18:57:07.869Z,8.50
2018-01-11T18:59:34.811Z,8.50
2018-01-11T19:02:01.667Z,8.50
2018-01-11T19:04:28.603Z,8.60
2018-01-11T19:06:55.452Z,8.50
2018-01-11T19:09:22.402Z,8.40
2018-01-11T19:11:49.327Z,8.40
2018-01-11T19:14:16.231Z,8.50
2018-01-11T19:16:43.160Z,8.60
2018-01-11T19:19:10.866Z,8.70
2018-01-11T19:21:37.877Z,8.70
2018-01-11T19:24:04.751Z,8.70
2018-01-11T19:26:31.628Z,8.70
2018-01-11T19:28:58.554Z,8.60
2018-01-11T19:31:25.490Z,8.60
2018-01-11T19:33:52.452Z,8.50
2018-01-11T19:36:19.326Z,8.60
2018-01-11T19:38:46.296Z,8.60
2018-01-11T19:41:13.903Z,8.60
2018-01-11T19:43:40.817Z,8.60
2018-01-11T19:46:07.733Z,8.60
2018-01-11T19:48:34.668Z,8.70
2018-01-11T19:51:01.595Z,8.70
2018-01-11T19:53:28.452Z,8.70
2018-01-11T19:55:55.319Z,8.70
2018-01-11T19:58:22.248Z,8.70
2018-01-11T20:00:49.102Z,8.70
2018-01-11T20:03:16.041Z,8.80
2018-01-11T20:05:42.963Z,8.70
2018-01-11T20:08:09.903Z,8.80
2018-01-11T20:10:36.762Z,8.70
2018-01-11T20:13:03.613Z,8.60
2018-01-11T20:15:30.535Z,8.60
2018-01-11T20:17:57.408Z,8.60
2018-01-11T20:20:24.355Z,8.60
2018-01-11T20:22:51.266Z,8.60
2018-01-11T20:25:18.125Z,8.60
2018-01-11T20:27:45.111Z,8.60
2018-01-11T20:30:12.787Z,8.70
2018-01-11T20:32:40.384Z,8.80
2018-01-11T20:35:07.323Z,8.70
2018-01-11T20:37:34.272Z,8.70
2018-01-11T20:40:01.191Z,8.80
2018-01-11T20:42:28.147Z,8.70
2018-01-11T20:44:55.007Z,8.80
2018-01-11T20:47:21.885Z,8.70
2018-01-11T20:49:48.818Z,8.70
2018-01-11T20:52:15.680Z,8.60
2018-01-11T20:54:42.687Z,8.60
2018-01-11T20:57:09.556Z,8.60
2018-01-11T20:59:36.475Z,8.60
2018-01-11T21:02:03.531Z,8.60
2018-01-11T21:04:30.451Z,8.50
2018-01-11T21:06:57.378Z,8.50
2018-01-11T21:09:24.964Z,8.50
2018-01-11T21:11:51.904Z,8.50
2018-01-11T21:14:18.756Z,8.50
2018-01-11T21:16:45.714Z,8.60
2018-01-11T21:19:12.547Z,8.60
2018-01-11T21:21:39.392Z,8.70
2018-01-11T21:24:06.368Z,8.70
2018-01-11T21:26:33.261Z,8.60
2018-01-11T21:29:00.944Z,8.30
2018-01-11T21:31:27.796Z,8.30
2018-01-11T21:33:54.723Z,8.30
2018-01-11T21:36:21.576Z,8.30
2018-01-11T21:38:48.564Z,8.40
2018-01-11T21:41:15.431Z,8.40
2018-01-11T21:43:42.291Z,8.40
2018-01-11T21:46:09.952Z,8.30
2018-01-11T21:48:36.795Z,8.30
2018-01-11T21:51:03.710Z,8.20
2018-01-11T21:53:30.692Z,8.10
2018-01-11T21:55:58.428Z,8.30
2018-01-11T21:58:25.349Z,8.30
2018-01-11T22:00:52.209Z,8.40
2018-01-11T22:03:19.140Z,8.50
2018-01-11T22:05:45.991Z,8.60
2018-01-11T22:08:12.910Z,8.60
2018-01-11T22:10:39.840Z,8.30
2018-01-11T22:13:06.764Z,8.20
2018-01-11T22:15:33.630Z,8.20
2018-01-11T22:18:00.539Z,8.30
2018-01-11T22:20:27.400Z,8.40
2018-01-11T22:22:54.390Z,8.50
2018-01-11T22:25:21.237Z,8.60
2018-01-11T22:27:48.167Z,8.50
2018-01-11T22:30:15.040Z,8.50
2018-01-11T22:32:41.960Z,8.60
2018-01-11T22:35:08.811Z,8.60
2018-01-11T22:37:35.779Z,8.60
2018-01-11T22:40:02.723Z,8.40
2018-01-11T22:42:29.631Z,8.20
2018-01-11T22:44:56.572Z,7.90
2018-01-11T22:47:23.431Z,7.90
2018-01-11T22:49:50.287Z,7.80
2018-01-11T22:52:17.228Z,7.90
2018-01-11T22:54:46.563Z,7.90
2018-01-11T22:57:13.680Z,8.00
2018-01-11T22:59:40.562Z,8.00
2018-01-11T23:02:07.494Z,8.10
2018-01-11T23:04:36.617Z,8.20
2018-01-11T23:07:03.474Z,8.20
2018-01-11T23:09:30.468Z,8.30
2018-01-11T23:11:57.350Z,8.40
2018-01-11T23:14:29.785Z,8.40
2018-01-11T23:16:56.930Z,8.40
2018-01-11T23:19:27.700Z,8.40
2018-01-11T23:21:55.385Z,8.50
2018-01-11T23:24:22.299Z,8.50
2018-01-11T23:26:49.204Z,8.40
2018-01-11T23:29:16.053Z,8.50
2018-01-11T23:31:42.999Z,8.40
2018-01-11T23:34:12.583Z,8.40
2018-01-11T23:36:39.612Z,8.40
2018-01-11T23:39:06.527Z,8.50
2018-01-11T23:41:33.473Z,8.50
2018-01-11T23:44:00.335Z,8.40
2018-01-11T23:46:27.188Z,8.40
2018-01-11T23:48:54.094Z,8.40
2018-01-11T23:51:20.931Z,8.50
2018-01-11T23:53:47.874Z,8.40
2018-01-11T23:56:14.722Z,8.40
2018-01-11T23:58:41.638Z,8.40
